sensor_id;sensor_type;location;lat;lon;timestamp;P1;durP1;ratioP1;P2;durP2;ratioP2
40471;SDS011;26174;42.908;23.800;2024-03-23T00:53:17;26.40;;;11.20;;
40471;SDS011;26174;42.908;23.800;2024-03-23T00:55:43;30.63;;;9.73;;
40471;SDS011;26174;42.908;23.800;2024-03-23T00:58:09;26.60;;;10.80;;
40471;SDS011;26174;42.908;23.800;2024-03-23T01:00:34;28.33;;;11.27;;
40471;SDS011;26174;42.908;23.800;2024-03-23T01:03:00;22.38;;;12.18;;
40471;SDS011;26174;42.908;23.800;2024-03-23T01:05:26;25.38;;;11.82;;
40471;SDS011;26174;42.908;23.800;2024-03-23T01:07:52;31.83;;;12.07;;
40471;SDS011;26174;42.908;23.800;2024-03-23T01:10:17;29.23;;;13.23;;
40471;SDS011;26174;42.908;23.800;2024-03-23T01:12:43;24.50;;;12.30;;
40471;SDS011;26174;42.908;23.800;2024-03-23T01:15:08;34.63;;;13.95;;
40471;SDS011;26174;42.908;23.800;2024-03-23T01:17:34;29.48;;;13.35;;
40471;SDS011;26174;42.908;23.800;2024-03-23T01:20:00;32.90;;;13.60;;
40471;SDS011;26174;42.908;23.800;2024-03-23T01:22:25;28.20;;;13.38;;
40471;SDS011;26174;42.908;23.800;2024-03-23T01:24:51;33.17;;;14.20;;
40471;SDS011;26174;42.908;23.800;2024-03-23T01:27:16;31.00;;;13.57;;
40471;SDS011;26174;42.908;23.800;2024-03-23T01:29:43;34.28;;;13.75;;
40471;SDS011;26174;42.908;23.800;2024-03-23T01:32:08;37.47;;;15.50;;
40471;SDS011;26174;42.908;23.800;2024-03-23T01:34:34;39.20;;;15.75;;
40471;SDS011;26174;42.908;23.800;2024-03-23T01:37:00;30.25;;;14.23;;
40471;SDS011;26174;42.908;23.800;2024-03-23T01:39:26;34.47;;;12.52;;
40471;SDS011;26174;42.908;23.800;2024-03-23T01:41:52;26.70;;;12.73;;
40471;SDS011;26174;42.908;23.800;2024-03-23T01:44:18;26.83;;;12.93;;
40471;SDS011;26174;42.908;23.800;2024-03-23T01:46:43;33.22;;;13.18;;
40471;SDS011;26174;42.908;23.800;2024-03-23T01:49:09;25.88;;;12.95;;
40471;SDS011;26174;42.908;23.800;2024-03-23T01:51:35;26.67;;;12.48;;
40471;SDS011;26174;42.908;23.800;2024-03-23T01:54:01;35.58;;;12.63;;
40471;SDS011;26174;42.908;23.800;2024-03-23T01:56:32;25.88;;;12.73;;
40471;SDS011;26174;42.908;23.800;2024-03-23T01:59:01;29.45;;;13.13;;
40471;SDS011;26174;42.908;23.800;2024-03-23T02:01:27;27.75;;;13.13;;
40471;SDS011;26174;42.908;23.800;2024-03-23T02:03:53;29.05;;;13.50;;
40471;SDS011;26174;42.908;23.800;2024-03-23T02:06:18;31.35;;;14.35;;
40471;SDS011;26174;42.908;23.800;2024-03-23T02:08:44;32.67;;;13.52;;
40471;SDS011;26174;42.908;23.800;2024-03-23T02:11:10;30.75;;;13.68;;
40471;SDS011;26174;42.908;23.800;2024-03-23T02:13:35;26.35;;;12.77;;
40471;SDS011;26174;42.908;23.800;2024-03-23T02:16:01;28.25;;;13.02;;
40471;SDS011;26174;42.908;23.800;2024-03-23T02:18:27;27.10;;;12.43;;
40471;SDS011;26174;42.908;23.800;2024-03-23T02:20:52;28.70;;;13.63;;
40471;SDS011;26174;42.908;23.800;2024-03-23T02:23:18;23.63;;;12.02;;
40471;SDS011;26174;42.908;23.800;2024-03-23T02:25:44;30.40;;;12.13;;
40471;SDS011;26174;42.908;23.800;2024-03-23T02:28:10;25.92;;;10.20;;
40471;SDS011;26174;42.908;23.800;2024-03-23T02:30:36;18.92;;;10.07;;
40471;SDS011;26174;42.908;23.800;2024-03-23T02:33:02;20.90;;;10.02;;
40471;SDS011;26174;42.908;23.800;2024-03-23T02:35:28;23.35;;;11.02;;
40471;SDS011;26174;42.908;23.800;2024-03-23T02:37:54;26.88;;;12.07;;
40471;SDS011;26174;42.908;23.800;2024-03-23T02:40:28;23.15;;;12.38;;
40471;SDS011;26174;42.908;23.800;2024-03-23T02:42:57;26.48;;;12.50;;
40471;SDS011;26174;42.908;23.800;2024-03-23T02:45:23;23.83;;;12.00;;
40471;SDS011;26174;42.908;23.800;2024-03-23T02:47:56;23.58;;;11.82;;
40471;SDS011;26174;42.908;23.800;2024-03-23T02:50:22;29.55;;;12.23;;
40471;SDS011;26174;42.908;23.800;2024-03-23T02:52:48;23.92;;;11.57;;
40471;SDS011;26174;42.908;23.800;2024-03-23T02:55:16;22.75;;;11.15;;
40471;SDS011;26174;42.908;23.800;2024-03-23T02:57:57;21.98;;;11.35;;
40471;SDS011;26174;42.908;23.800;2024-03-23T03:00:27;24.70;;;11.98;;
40471;SDS011;26174;42.908;23.800;2024-03-23T03:02:53;26.27;;;12.13;;
40471;SDS011;26174;42.908;23.800;2024-03-23T03:05:18;25.25;;;11.77;;
40471;SDS011;26174;42.908;23.800;2024-03-23T03:07:44;25.17;;;12.43;;
40471;SDS011;26174;42.908;23.800;2024-03-23T03:10:10;27.80;;;12.73;;
40471;SDS011;26174;42.908;23.800;2024-03-23T03:12:38;25.58;;;12.60;;
40471;SDS011;26174;42.908;23.800;2024-03-23T03:15:04;26.25;;;13.38;;
40471;SDS011;26174;42.908;23.800;2024-03-23T03:17:30;26.85;;;12.75;;
40471;SDS011;26174;42.908;23.800;2024-03-23T03:19:58;24.90;;;13.00;;
40471;SDS011;26174;42.908;23.800;2024-03-23T03:22:30;24.83;;;11.70;;
40471;SDS011;26174;42.908;23.800;2024-03-23T03:24:58;31.33;;;11.75;;
40471;SDS011;26174;42.908;23.800;2024-03-23T03:27:25;22.83;;;10.25;;
40471;SDS011;26174;42.908;23.800;2024-03-23T03:29:50;25.13;;;10.40;;
40471;SDS011;26174;42.908;23.800;2024-03-23T03:32:19;20.38;;;10.18;;
40471;SDS011;26174;42.908;23.800;2024-03-23T03:34:45;25.48;;;9.63;;
40471;SDS011;26174;42.908;23.800;2024-03-23T03:37:10;24.45;;;9.68;;
40471;SDS011;26174;42.908;23.800;2024-03-23T03:39:36;28.05;;;12.32;;
40471;SDS011;26174;42.908;23.800;2024-03-23T03:42:02;32.72;;;12.98;;
40471;SDS011;26174;42.908;23.800;2024-03-23T03:44:31;33.72;;;13.18;;
40471;SDS011;26174;42.908;23.800;2024-03-23T03:46:57;24.02;;;11.60;;
40471;SDS011;26174;42.908;23.800;2024-03-23T03:49:23;25.38;;;11.30;;
40471;SDS011;26174;42.908;23.800;2024-03-23T03:51:48;23.67;;;10.93;;
40471;SDS011;26174;42.908;23.800;2024-03-23T03:54:14;27.25;;;11.77;;
40471;SDS011;26174;42.908;23.800;2024-03-23T03:56:39;22.23;;;10.00;;
40471;SDS011;26174;42.908;23.800;2024-03-23T03:59:05;24.23;;;10.82;;
40471;SDS011;26174;42.908;23.800;2024-03-23T04:01:31;25.13;;;9.32;;
40471;SDS011;26174;42.908;23.800;2024-03-23T04:03:56;25.75;;;9.85;;
40471;SDS011;26174;42.908;23.800;2024-03-23T04:06:22;17.88;;;9.65;;
40471;SDS011;26174;42.908;23.800;2024-03-23T04:08:48;26.05;;;10.25;;
40471;SDS011;26174;42.908;23.800;2024-03-23T04:11:14;29.60;;;9.82;;
40471;SDS011;26174;42.908;23.800;2024-03-23T04:13:40;22.92;;;10.23;;
40471;SDS011;26174;42.908;23.800;2024-03-23T04:16:06;32.65;;;13.38;;
40471;SDS011;26174;42.908;23.800;2024-03-23T04:18:32;35.90;;;14.70;;
40471;SDS011;26174;42.908;23.800;2024-03-23T04:20:58;35.20;;;16.05;;
40471;SDS011;26174;42.908;23.800;2024-03-23T04:23:23;40.85;;;17.77;;
40471;SDS011;26174;42.908;23.800;2024-03-23T04:25:49;41.33;;;14.40;;
40471;SDS011;26174;42.908;23.800;2024-03-23T04:28:14;41.42;;;16.58;;
40471;SDS011;26174;42.908;23.800;2024-03-23T04:30:40;33.83;;;16.85;;
40471;SDS011;26174;42.908;23.800;2024-03-23T04:33:06;44.40;;;19.10;;
40471;SDS011;26174;42.908;23.800;2024-03-23T04:35:31;42.42;;;16.88;;
40471;SDS011;26174;42.908;23.800;2024-03-23T04:37:57;45.17;;;18.73;;
40471;SDS011;26174;42.908;23.800;2024-03-23T04:40:23;38.05;;;16.95;;
40471;SDS011;26174;42.908;23.800;2024-03-23T04:42:49;53.88;;;16.63;;
40471;SDS011;26174;42.908;23.800;2024-03-23T04:45:15;35.95;;;14.45;;
40471;SDS011;26174;42.908;23.800;2024-03-23T04:47:41;33.08;;;14.07;;
40471;SDS011;26174;42.908;23.800;2024-03-23T04:50:06;40.50;;;14.52;;
40471;SDS011;26174;42.908;23.800;2024-03-23T04:52:32;40.90;;;16.83;;
40471;SDS011;26174;42.908;23.800;2024-03-23T04:54:58;41.50;;;17.33;;
40471;SDS011;26174;42.908;23.800;2024-03-23T04:57:23;39.42;;;16.58;;
40471;SDS011;26174;42.908;23.800;2024-03-23T04:59:49;36.70;;;13.93;;
40471;SDS011;26174;42.908;23.800;2024-03-23T05:02:15;32.53;;;13.90;;
40471;SDS011;26174;42.908;23.800;2024-03-23T05:04:41;35.35;;;13.68;;
40471;SDS011;26174;42.908;23.800;2024-03-23T05:07:07;43.40;;;14.32;;
40471;SDS011;26174;42.908;23.800;2024-03-23T05:09:33;27.33;;;11.73;;
40471;SDS011;26174;42.908;23.800;2024-03-23T05:11:59;23.15;;;9.80;;
40471;SDS011;26174;42.908;23.800;2024-03-23T05:14:29;34.25;;;10.73;;
40471;SDS011;26174;42.908;23.800;2024-03-23T05:16:54;35.80;;;12.52;;
40471;SDS011;26174;42.908;23.800;2024-03-23T05:19:21;28.67;;;11.52;;
40471;SDS011;26174;42.908;23.800;2024-03-23T05:21:47;31.92;;;13.32;;
40471;SDS011;26174;42.908;23.800;2024-03-23T05:24:13;33.45;;;14.90;;
40471;SDS011;26174;42.908;23.800;2024-03-23T05:26:38;30.58;;;13.75;;
40471;SDS011;26174;42.908;23.800;2024-03-23T05:29:04;32.60;;;13.73;;
40471;SDS011;26174;42.908;23.800;2024-03-23T05:31:31;31.50;;;13.95;;
40471;SDS011;26174;42.908;23.800;2024-03-23T05:33:57;28.95;;;12.38;;
40471;SDS011;26174;42.908;23.800;2024-03-23T05:36:23;38.35;;;15.55;;
40471;SDS011;26174;42.908;23.800;2024-03-23T05:38:51;30.02;;;13.57;;
40471;SDS011;26174;42.908;23.800;2024-03-23T05:41:17;41.83;;;14.50;;
40471;SDS011;26174;42.908;23.800;2024-03-23T05:43:43;31.48;;;13.93;;
40471;SDS011;26174;42.908;23.800;2024-03-23T05:46:08;35.70;;;15.15;;
40471;SDS011;26174;42.908;23.800;2024-03-23T05:48:34;61.65;;;27.70;;
40471;SDS011;26174;42.908;23.800;2024-03-23T05:50:59;44.58;;;21.38;;
40471;SDS011;26174;42.908;23.800;2024-03-23T05:53:25;34.78;;;16.30;;
40471;SDS011;26174;42.908;23.800;2024-03-23T05:55:51;34.63;;;17.65;;
40471;SDS011;26174;42.908;23.800;2024-03-23T05:58:24;31.58;;;16.05;;
40471;SDS011;26174;42.908;23.800;2024-03-23T06:00:56;31.70;;;16.35;;
40471;SDS011;26174;42.908;23.800;2024-03-23T06:03:22;37.88;;;16.42;;
40471;SDS011;26174;42.908;23.800;2024-03-23T06:05:48;31.70;;;17.23;;
40471;SDS011;26174;42.908;23.800;2024-03-23T06:08:14;39.70;;;18.88;;
40471;SDS011;26174;42.908;23.800;2024-03-23T06:10:40;40.97;;;19.08;;
40471;SDS011;26174;42.908;23.800;2024-03-23T06:13:05;41.00;;;18.77;;
40471;SDS011;26174;42.908;23.800;2024-03-23T06:15:31;39.03;;;18.75;;
40471;SDS011;26174;42.908;23.800;2024-03-23T06:17:57;40.10;;;19.10;;
40471;SDS011;26174;42.908;23.800;2024-03-23T06:20:23;39.50;;;18.10;;
40471;SDS011;26174;42.908;23.800;2024-03-23T06:22:49;43.85;;;20.30;;
40471;SDS011;26174;42.908;23.800;2024-03-23T06:25:14;47.63;;;21.30;;
40471;SDS011;26174;42.908;23.800;2024-03-23T06:27:40;43.22;;;22.95;;
40471;SDS011;26174;42.908;23.800;2024-03-23T06:30:06;63.90;;;25.45;;
40471;SDS011;26174;42.908;23.800;2024-03-23T06:32:32;56.58;;;27.63;;
40471;SDS011;26174;42.908;23.800;2024-03-23T06:34:58;60.15;;;28.75;;
40471;SDS011;26174;42.908;23.800;2024-03-23T06:37:24;58.65;;;29.60;;
40471;SDS011;26174;42.908;23.800;2024-03-23T06:39:49;62.08;;;30.38;;
40471;SDS011;26174;42.908;23.800;2024-03-23T06:42:15;65.47;;;30.70;;
40471;SDS011;26174;42.908;23.800;2024-03-23T06:44:40;46.70;;;26.77;;
40471;SDS011;26174;42.908;23.800;2024-03-23T06:47:06;48.92;;;26.00;;
40471;SDS011;26174;42.908;23.800;2024-03-23T06:49:32;46.05;;;26.40;;
40471;SDS011;26174;42.908;23.800;2024-03-23T06:51:57;54.03;;;25.63;;
40471;SDS011;26174;42.908;23.800;2024-03-23T06:54:24;61.85;;;26.83;;
40471;SDS011;26174;42.908;23.800;2024-03-23T06:56:52;51.28;;;24.05;;
40471;SDS011;26174;42.908;23.800;2024-03-23T06:59:17;43.65;;;26.02;;
40471;SDS011;26174;42.908;23.800;2024-03-23T07:01:43;53.50;;;25.45;;
40471;SDS011;26174;42.908;23.800;2024-03-23T07:04:09;45.50;;;24.10;;
40471;SDS011;26174;42.908;23.800;2024-03-23T07:06:34;48.05;;;23.40;;
40471;SDS011;26174;42.908;23.800;2024-03-23T07:09:07;39.22;;;21.73;;
40471;SDS011;26174;42.908;23.800;2024-03-23T07:11:33;51.83;;;25.58;;
40471;SDS011;26174;42.908;23.800;2024-03-23T07:13:59;50.40;;;25.75;;
40471;SDS011;26174;42.908;23.800;2024-03-23T07:16:26;42.83;;;22.95;;
40471;SDS011;26174;42.908;23.800;2024-03-23T07:18:52;38.72;;;20.80;;
40471;SDS011;26174;42.908;23.800;2024-03-23T07:21:17;37.53;;;19.83;;
40471;SDS011;26174;42.908;23.800;2024-03-23T07:23:43;63.05;;;33.00;;
40471;SDS011;26174;42.908;23.800;2024-03-23T07:26:12;35.97;;;18.92;;
40471;SDS011;26174;42.908;23.800;2024-03-23T07:28:37;38.85;;;20.25;;
40471;SDS011;26174;42.908;23.800;2024-03-23T07:31:12;37.00;;;20.27;;
40471;SDS011;26174;42.908;23.800;2024-03-23T07:33:42;44.47;;;20.38;;
40471;SDS011;26174;42.908;23.800;2024-03-23T07:36:09;50.28;;;20.77;;
40471;SDS011;26174;42.908;23.800;2024-03-23T07:38:35;34.75;;;20.52;;
40471;SDS011;26174;42.908;23.800;2024-03-23T07:41:10;37.10;;;20.80;;
40471;SDS011;26174;42.908;23.800;2024-03-23T07:43:37;39.25;;;22.50;;
40471;SDS011;26174;42.908;23.800;2024-03-23T07:46:03;37.78;;;22.33;;
40471;SDS011;26174;42.908;23.800;2024-03-23T07:48:29;36.88;;;22.50;;
40471;SDS011;26174;42.908;23.800;2024-03-23T07:50:59;38.50;;;22.15;;
40471;SDS011;26174;42.908;23.800;2024-03-23T07:53:29;88.95;;;50.00;;
40471;SDS011;26174;42.908;23.800;2024-03-23T07:55:56;37.00;;;20.13;;
40471;SDS011;26174;42.908;23.800;2024-03-23T07:58:23;47.53;;;19.40;;
40471;SDS011;26174;42.908;23.800;2024-03-23T08:00:49;44.28;;;19.13;;
40471;SDS011;26174;42.908;23.800;2024-03-23T08:03:15;36.08;;;19.92;;
40471;SDS011;26174;42.908;23.800;2024-03-23T08:05:41;37.67;;;18.77;;
40471;SDS011;26174;42.908;23.800;2024-03-23T08:08:06;28.38;;;17.63;;
40471;SDS011;26174;42.908;23.800;2024-03-23T08:10:32;33.42;;;17.67;;
40471;SDS011;26174;42.908;23.800;2024-03-23T08:12:57;26.35;;;15.50;;
40471;SDS011;26174;42.908;23.800;2024-03-23T08:15:23;36.13;;;15.77;;
40471;SDS011;26174;42.908;23.800;2024-03-23T08:17:49;30.42;;;16.42;;
40471;SDS011;26174;42.908;23.800;2024-03-23T08:20:17;49.28;;;20.10;;
40471;SDS011;26174;42.908;23.800;2024-03-23T08:22:43;29.45;;;15.63;;
40471;SDS011;26174;42.908;23.800;2024-03-23T08:25:09;27.42;;;15.02;;
40471;SDS011;26174;42.908;23.800;2024-03-23T08:27:34;31.02;;;15.57;;
40471;SDS011;26174;42.908;23.800;2024-03-23T08:30:00;28.63;;;15.02;;
40471;SDS011;26174;42.908;23.800;2024-03-23T08:32:26;22.45;;;13.50;;
40471;SDS011;26174;42.908;23.800;2024-03-23T08:34:51;24.88;;;13.93;;
40471;SDS011;26174;42.908;23.800;2024-03-23T08:37:17;29.33;;;15.30;;
40471;SDS011;26174;42.908;23.800;2024-03-23T08:39:43;25.55;;;13.52;;
40471;SDS011;26174;42.908;23.800;2024-03-23T08:42:09;48.70;;;12.20;;
40471;SDS011;26174;42.908;23.800;2024-03-23T08:44:34;18.30;;;8.68;;
40471;SDS011;26174;42.908;23.800;2024-03-23T08:47:01;19.23;;;7.93;;
40471;SDS011;26174;42.908;23.800;2024-03-23T08:49:26;17.00;;;6.88;;
40471;SDS011;26174;42.908;23.800;2024-03-23T08:51:52;26.10;;;7.82;;
40471;SDS011;26174;42.908;23.800;2024-03-23T08:54:19;9.30;;;6.10;;
40471;SDS011;26174;42.908;23.800;2024-03-23T08:56:45;17.40;;;7.20;;
40471;SDS011;26174;42.908;23.800;2024-03-23T08:59:11;13.52;;;6.22;;
40471;SDS011;26174;42.908;23.800;2024-03-23T09:01:37;14.70;;;5.60;;
40471;SDS011;26174;42.908;23.800;2024-03-23T09:04:03;15.18;;;6.35;;
40471;SDS011;26174;42.908;23.800;2024-03-23T09:06:32;10.25;;;5.70;;
40471;SDS011;26174;42.908;23.800;2024-03-23T09:08:57;12.23;;;5.95;;
40471;SDS011;26174;42.908;23.800;2024-03-23T09:11:23;12.20;;;6.65;;
40471;SDS011;26174;42.908;23.800;2024-03-23T09:13:48;11.70;;;7.30;;
40471;SDS011;26174;42.908;23.800;2024-03-23T09:16:14;8.82;;;5.95;;
40471;SDS011;26174;42.908;23.800;2024-03-23T09:18:40;12.27;;;6.20;;
40471;SDS011;26174;42.908;23.800;2024-03-23T09:21:12;28.88;;;7.18;;
40471;SDS011;26174;42.908;23.800;2024-03-23T09:23:39;12.23;;;5.97;;
40471;SDS011;26174;42.908;23.800;2024-03-23T09:26:06;7.90;;;5.03;;
40471;SDS011;26174;42.908;23.800;2024-03-23T09:28:34;9.80;;;5.03;;
40471;SDS011;26174;42.908;23.800;2024-03-23T09:31:03;8.35;;;4.82;;
40471;SDS011;26174;42.908;23.800;2024-03-23T09:33:33;8.48;;;4.07;;
40471;SDS011;26174;42.908;23.800;2024-03-23T09:36:02;5.95;;;4.18;;
40471;SDS011;26174;42.908;23.800;2024-03-23T09:38:29;9.63;;;5.20;;
40471;SDS011;26174;42.908;23.800;2024-03-23T09:40:55;6.38;;;4.50;;
40471;SDS011;26174;42.908;23.800;2024-03-23T09:43:20;5.55;;;3.95;;
40471;SDS011;26174;42.908;23.800;2024-03-23T09:45:46;8.75;;;5.40;;
40471;SDS011;26174;42.908;23.800;2024-03-23T09:48:13;9.57;;;5.22;;
40471;SDS011;26174;42.908;23.800;2024-03-23T09:50:39;7.03;;;3.67;;
40471;SDS011;26174;42.908;23.800;2024-03-23T09:53:10;10.30;;;4.82;;
40471;SDS011;26174;42.908;23.800;2024-03-23T09:55:42;9.20;;;6.70;;
40471;SDS011;26174;42.908;23.800;2024-03-23T09:58:12;5.07;;;3.40;;
40471;SDS011;26174;42.908;23.800;2024-03-23T10:00:39;6.55;;;4.18;;
40471;SDS011;26174;42.908;23.800;2024-03-23T10:03:05;9.73;;;3.75;;
40471;SDS011;26174;42.908;23.800;2024-03-23T10:05:31;6.28;;;4.13;;
40471;SDS011;26174;42.908;23.800;2024-03-23T10:07:59;4.90;;;3.78;;
40471;SDS011;26174;42.908;23.800;2024-03-23T10:10:25;4.72;;;3.53;;
40471;SDS011;26174;42.908;23.800;2024-03-23T10:12:52;4.40;;;3.53;;
40471;SDS011;26174;42.908;23.800;2024-03-23T10:15:19;5.63;;;3.30;;
40471;SDS011;26174;42.908;23.800;2024-03-23T10:17:46;5.90;;;3.75;;
40471;SDS011;26174;42.908;23.800;2024-03-23T10:20:12;5.38;;;4.20;;
40471;SDS011;26174;42.908;23.800;2024-03-23T10:22:38;7.80;;;3.60;;
40471;SDS011;26174;42.908;23.800;2024-03-23T10:25:10;7.45;;;3.47;;
40471;SDS011;26174;42.908;23.800;2024-03-23T10:27:38;6.13;;;4.00;;
40471;SDS011;26174;42.908;23.800;2024-03-23T10:30:08;6.50;;;3.90;;
40471;SDS011;26174;42.908;23.800;2024-03-23T10:32:39;7.85;;;3.90;;
40471;SDS011;26174;42.908;23.800;2024-03-23T10:37:44;6.45;;;3.88;;
40471;SDS011;26174;42.908;23.800;2024-03-23T10:40:10;6.60;;;3.83;;
40471;SDS011;26174;42.908;23.800;2024-03-23T10:42:37;4.85;;;3.80;;
40471;SDS011;26174;42.908;23.800;2024-03-23T10:45:04;6.78;;;4.13;;
40471;SDS011;26174;42.908;23.800;2024-03-23T10:47:31;4.93;;;3.33;;
40471;SDS011;26174;42.908;23.800;2024-03-23T10:49:57;6.53;;;3.97;;
40471;SDS011;26174;42.908;23.800;2024-03-23T10:52:23;9.18;;;4.45;;
40471;SDS011;26174;42.908;23.800;2024-03-23T10:54:50;7.43;;;5.35;;
40471;SDS011;26174;42.908;23.800;2024-03-23T10:57:27;4.13;;;3.53;;
40471;SDS011;26174;42.908;23.800;2024-03-23T11:00:02;8.85;;;4.05;;
40471;SDS011;26174;42.908;23.800;2024-03-23T11:02:28;4.93;;;3.63;;
40471;SDS011;26174;42.908;23.800;2024-03-23T11:04:54;6.40;;;4.03;;
40471;SDS011;26174;42.908;23.800;2024-03-23T11:09:49;4.22;;;3.55;;
40471;SDS011;26174;42.908;23.800;2024-03-23T11:14:46;4.57;;;3.15;;
40471;SDS011;26174;42.908;23.800;2024-03-23T11:17:17;5.57;;;3.15;;
40471;SDS011;26174;42.908;23.800;2024-03-23T11:19:43;5.55;;;3.80;;
40471;SDS011;26174;42.908;23.800;2024-03-23T11:22:09;6.95;;;3.92;;
40471;SDS011;26174;42.908;23.800;2024-03-23T11:24:35;6.18;;;4.63;;
40471;SDS011;26174;42.908;23.800;2024-03-23T11:27:02;4.47;;;3.15;;
40471;SDS011;26174;42.908;23.800;2024-03-23T11:29:29;5.97;;;4.55;;
40471;SDS011;26174;42.908;23.800;2024-03-23T11:31:55;6.70;;;4.18;;
40471;SDS011;26174;42.908;23.800;2024-03-23T11:34:21;4.82;;;3.85;;
40471;SDS011;26174;42.908;23.800;2024-03-23T11:36:47;12.15;;;4.20;;
40471;SDS011;26174;42.908;23.800;2024-03-23T11:44:18;6.72;;;3.90;;
40471;SDS011;26174;42.908;23.800;2024-03-23T11:46:45;9.27;;;4.03;;
40471;SDS011;26174;42.908;23.800;2024-03-23T11:49:27;5.18;;;4.03;;
40471;SDS011;26174;42.908;23.800;2024-03-23T11:51:54;5.72;;;3.28;;
40471;SDS011;26174;42.908;23.800;2024-03-23T11:54:21;5.82;;;3.47;;
40471;SDS011;26174;42.908;23.800;2024-03-23T11:56:57;7.38;;;3.50;;
40471;SDS011;26174;42.908;23.800;2024-03-23T12:02:00;6.03;;;3.45;;
40471;SDS011;26174;42.908;23.800;2024-03-23T12:04:27;4.90;;;3.17;;
40471;SDS011;26174;42.908;23.800;2024-03-23T12:09:38;3.30;;;2.65;;
40471;SDS011;26174;42.908;23.800;2024-03-23T12:12:11;3.42;;;2.67;;
40471;SDS011;26174;42.908;23.800;2024-03-23T12:14:45;6.57;;;2.88;;
40471;SDS011;26174;42.908;23.800;2024-03-23T12:17:26;4.10;;;2.55;;
40471;SDS011;26174;42.908;23.800;2024-03-23T12:19:52;3.22;;;2.58;;
40471;SDS011;26174;42.908;23.800;2024-03-23T12:22:21;3.88;;;2.50;;
40471;SDS011;26174;42.908;23.800;2024-03-23T12:24:47;6.63;;;3.22;;
40471;SDS011;26174;42.908;23.800;2024-03-23T12:27:13;5.90;;;2.90;;
40471;SDS011;26174;42.908;23.800;2024-03-23T12:29:40;4.57;;;2.30;;
40471;SDS011;26174;42.908;23.800;2024-03-23T12:32:08;2.78;;;2.30;;
40471;SDS011;26174;42.908;23.800;2024-03-23T12:34:37;2.38;;;2.15;;
40471;SDS011;26174;42.908;23.800;2024-03-23T12:37:02;3.47;;;2.53;;
40471;SDS011;26174;42.908;23.800;2024-03-23T12:39:28;2.50;;;1.90;;
40471;SDS011;26174;42.908;23.800;2024-03-23T12:41:53;3.13;;;2.10;;
40471;SDS011;26174;42.908;23.800;2024-03-23T12:44:19;5.00;;;2.50;;
40471;SDS011;26174;42.908;23.800;2024-03-23T12:46:46;5.78;;;2.90;;
40471;SDS011;26174;42.908;23.800;2024-03-23T12:49:12;6.00;;;2.80;;
40471;SDS011;26174;42.908;23.800;2024-03-23T12:51:46;3.63;;;2.80;;
40471;SDS011;26174;42.908;23.800;2024-03-23T12:54:23;3.22;;;2.10;;
40471;SDS011;26174;42.908;23.800;2024-03-23T12:56:50;4.45;;;2.00;;
40471;SDS011;26174;42.908;23.800;2024-03-23T12:59:15;5.78;;;2.40;;
40471;SDS011;26174;42.908;23.800;2024-03-23T13:01:44;5.82;;;2.53;;
40471;SDS011;26174;42.908;23.800;2024-03-23T13:04:10;2.92;;;2.25;;
40471;SDS011;26174;42.908;23.800;2024-03-23T13:06:36;2.75;;;1.75;;
40471;SDS011;26174;42.908;23.800;2024-03-23T13:09:02;3.25;;;1.92;;
40471;SDS011;26174;42.908;23.800;2024-03-23T13:11:31;2.78;;;1.80;;
40471;SDS011;26174;42.908;23.800;2024-03-23T13:13:57;3.25;;;1.77;;
40471;SDS011;26174;42.908;23.800;2024-03-23T13:16:22;4.35;;;2.03;;
40471;SDS011;26174;42.908;23.800;2024-03-23T13:18:48;2.50;;;2.17;;
40471;SDS011;26174;42.908;23.800;2024-03-23T13:21:13;6.10;;;2.33;;
40471;SDS011;26174;42.908;23.800;2024-03-23T13:23:39;2.95;;;1.90;;
40471;SDS011;26174;42.908;23.800;2024-03-23T13:26:08;2.75;;;2.17;;
40471;SDS011;26174;42.908;23.800;2024-03-23T13:28:34;3.60;;;2.20;;
40471;SDS011;26174;42.908;23.800;2024-03-23T13:31:01;2.45;;;1.90;;
40471;SDS011;26174;42.908;23.800;2024-03-23T13:33:29;5.65;;;2.05;;
40471;SDS011;26174;42.908;23.800;2024-03-23T13:35:57;3.47;;;2.30;;
40471;SDS011;26174;42.908;23.800;2024-03-23T13:38:23;2.88;;;2.05;;
40471;SDS011;26174;42.908;23.800;2024-03-23T13:40:56;2.85;;;1.77;;
40471;SDS011;26174;42.908;23.800;2024-03-23T13:43:24;2.05;;;1.80;;
40471;SDS011;26174;42.908;23.800;2024-03-23T13:45:53;4.32;;;1.80;;
40471;SDS011;26174;42.908;23.800;2024-03-23T13:48:20;1.90;;;1.70;;
40471;SDS011;26174;42.908;23.800;2024-03-23T13:50:47;2.88;;;2.00;;
40471;SDS011;26174;42.908;23.800;2024-03-23T13:53:13;2.00;;;1.73;;
40471;SDS011;26174;42.908;23.800;2024-03-23T13:55:47;2.25;;;1.73;;
40471;SDS011;26174;42.908;23.800;2024-03-23T13:58:13;2.00;;;1.80;;
40471;SDS011;26174;42.908;23.800;2024-03-23T14:00:39;4.93;;;1.73;;
40471;SDS011;26174;42.908;23.800;2024-03-23T14:03:05;4.35;;;2.20;;
40471;SDS011;26174;42.908;23.800;2024-03-23T14:05:31;3.00;;;2.00;;
40471;SDS011;26174;42.908;23.800;2024-03-23T14:07:56;3.42;;;2.17;;
40471;SDS011;26174;42.908;23.800;2024-03-23T14:10:25;3.75;;;1.73;;
40471;SDS011;26174;42.908;23.800;2024-03-23T14:12:51;6.30;;;1.85;;
40471;SDS011;26174;42.908;23.800;2024-03-23T14:15:16;2.65;;;1.77;;
40471;SDS011;26174;42.908;23.800;2024-03-23T14:17:43;3.55;;;2.20;;
40471;SDS011;26174;42.908;23.800;2024-03-23T14:20:09;4.20;;;2.50;;
40471;SDS011;26174;42.908;23.800;2024-03-23T14:22:36;2.88;;;1.92;;
40471;SDS011;26174;42.908;23.800;2024-03-23T14:25:03;5.30;;;2.20;;
40471;SDS011;26174;42.908;23.800;2024-03-23T14:27:29;16.77;;;9.98;;
40471;SDS011;26174;42.908;23.800;2024-03-23T14:29:54;18.02;;;11.77;;
40471;SDS011;26174;42.908;23.800;2024-03-23T14:32:21;2.92;;;2.05;;
40471;SDS011;26174;42.908;23.800;2024-03-23T14:34:47;12.77;;;2.22;;
40471;SDS011;26174;42.908;23.800;2024-03-23T14:37:15;3.72;;;1.95;;
40471;SDS011;26174;42.908;23.800;2024-03-23T14:39:45;6.85;;;2.50;;
40471;SDS011;26174;42.908;23.800;2024-03-23T14:42:11;3.05;;;1.98;;
40471;SDS011;26174;42.908;23.800;2024-03-23T14:44:37;4.25;;;2.50;;
40471;SDS011;26174;42.908;23.800;2024-03-23T14:47:02;3.65;;;2.28;;
40471;SDS011;26174;42.908;23.800;2024-03-23T14:49:28;6.20;;;3.88;;
40471;SDS011;26174;42.908;23.800;2024-03-23T14:51:53;3.65;;;1.92;;
40471;SDS011;26174;42.908;23.800;2024-03-23T14:54:19;5.63;;;2.13;;
40471;SDS011;26174;42.908;23.800;2024-03-23T14:56:45;3.85;;;2.25;;
40471;SDS011;26174;42.908;23.800;2024-03-23T14:59:12;3.92;;;2.80;;
40471;SDS011;26174;42.908;23.800;2024-03-23T15:01:38;2.92;;;2.30;;
40471;SDS011;26174;42.908;23.800;2024-03-23T15:04:03;5.32;;;2.40;;
40471;SDS011;26174;42.908;23.800;2024-03-23T15:06:29;4.40;;;2.70;;
40471;SDS011;26174;42.908;23.800;2024-03-23T15:08:55;5.00;;;2.60;;
40471;SDS011;26174;42.908;23.800;2024-03-23T15:11:20;3.25;;;2.42;;
40471;SDS011;26174;42.908;23.800;2024-03-23T15:13:46;2.75;;;2.35;;
40471;SDS011;26174;42.908;23.800;2024-03-23T15:16:16;4.13;;;2.30;;
40471;SDS011;26174;42.908;23.800;2024-03-23T15:18:45;3.88;;;2.67;;
40471;SDS011;26174;42.908;23.800;2024-03-23T15:21:11;3.83;;;2.30;;
40471;SDS011;26174;42.908;23.800;2024-03-23T15:23:37;3.65;;;2.45;;
40471;SDS011;26174;42.908;23.800;2024-03-23T15:26:03;5.43;;;2.40;;
40471;SDS011;26174;42.908;23.800;2024-03-23T15:28:31;4.25;;;2.75;;